»·PEaware :: THT3036 YBCS-KSAN

THT3036 :: YBCS-KSAN

FLIGHT INFORMATION

Flight Status: Arrived
Operator:
Air Tahiti Nui
More flights by this operator :: More flights under this callsign
Pilot: Alan J. (5709)
Aircraft: Unknown
(A359)
More flights by this aircraft type
Origin: YBCS Cairns Intl
Australia
Destination: KSAN San Diego Intl-Lindbergh
United States
More flights between these airports :: More routes between these airports
Route: +CS G342 HN B326 NIXAM 06N79 08N75 11N71 ADOWA B474 BARKR 20N56 FAPIS R578 FLITY R578 FICKY SXC COMIX1
File this flight plan on PilotEdge
Remarks:
Altitude:
(Current/Filed)
35,000ft
Speed:
(Current/Filed)
480kts
Departed: 11-Oct-17 07:07 PM
Arrived: 11-Oct-17 08:00 PM
Distance/Time
Traveled:
6289nm/0:53
Distance/Time
To Go:
Arrived

Flight Plot

Page will automatically refresh every two minutes.

Flight plan parsing failed; only flown route is shown


Map Options




Map Legend


Flown Route
Filed Route
Departure Airport
Arrival Airport
Navaid (VOR, NDB)
Fix

Horizontal Profiles

Position Reports

Time Latitude Longitude Heading Altitude Ground
Speed
11-Oct-17 19:10 31.333475 -122.554299 75 40991ft 558kts
11-Oct-17 19:11 31.368339 -122.377658 75 40991ft 558kts
11-Oct-17 19:12 31.402857 -122.200865 76 40987ft 558kts
11-Oct-17 19:13 31.437159 -122.024151 76 40991ft 558kts
11-Oct-17 19:14 31.471200 -121.847546 76 40991ft 558kts
11-Oct-17 19:15 31.505043 -121.670524 76 40991ft 558kts
11-Oct-17 19:16 31.538664 -121.493069 76 40991ft 558kts
11-Oct-17 19:17 31.596959 -121.327854 51 40948ft 548kts
11-Oct-17 19:18 31.687890 -121.185768 48 40990ft 548kts
11-Oct-17 19:19 31.778575 -121.042472 49 40991ft 545kts
11-Oct-17 19:20 31.868157 -120.900043 49 40990ft 543kts
11-Oct-17 19:21 31.957555 -120.757387 49 40990ft 543kts
11-Oct-17 19:22 32.046816 -120.614415 49 40990ft 543kts
11-Oct-17 19:23 32.135204 -120.472630 48 40972ft 542kts
11-Oct-17 19:24 32.215973 -120.342916 49 40979ft 543kts
11-Oct-17 19:25 32.304496 -120.199010 49 40989ft 543kts
11-Oct-17 19:26 32.393147 -120.054812 49 40990ft 543kts
11-Oct-17 19:27 32.481721 -119.910284 49 40990ft 543kts
11-Oct-17 19:28 32.569972 -119.765736 49 40990ft 543kts
11-Oct-17 19:29 32.658277 -119.620540 49 40990ft 543kts
11-Oct-17 19:30 32.746226 -119.475362 49 40990ft 543kts
11-Oct-17 19:31 32.833757 -119.330286 50 40687ft 546kts
11-Oct-17 19:32 32.921558 -119.183630 50 38088ft 544kts
11-Oct-17 19:33 33.008838 -119.037807 50 35515ft 546kts
11-Oct-17 19:34 33.097036 -118.889966 50 32936ft 547kts
11-Oct-17 19:35 33.178220 -118.754027 51 30436ft 522kts
11-Oct-17 19:36 33.259703 -118.616332 51 27863ft 498kts
11-Oct-17 19:37 33.337388 -118.484425 52 25285ft 476kts
11-Oct-17 19:38 33.367994 -118.350294 102 22907ft 452kts
11-Oct-17 19:39 33.347528 -118.208774 102 20303ft 434kts
11-Oct-17 19:40 33.329161 -118.072950 102 18305ft 385kts
11-Oct-17 19:41 33.313208 -117.955468 102 17297ft 343kts
11-Oct-17 19:42 33.298147 -117.845373 102 16614ft 333kts
11-Oct-17 19:43 33.283240 -117.736941 102 15937ft 328kts
11-Oct-17 19:44 33.268527 -117.630582 101 14944ft 321kts
11-Oct-17 19:45 33.219937 -117.552355 149 13825ft 302kts
11-Oct-17 19:46 33.151051 -117.495074 147 12030ft 295kts
11-Oct-17 19:47 33.086412 -117.440832 147 10404ft 270kts
11-Oct-17 19:48 33.025920 -117.390193 146 9298ft 274kts
11-Oct-17 19:49 32.965113 -117.339284 146 8108ft 263kts
11-Oct-17 19:50 32.928004 -117.266008 110 7287ft 266kts
11-Oct-17 19:51 32.902202 -117.180836 110 5709ft 284kts
11-Oct-17 19:53 32.874998 -117.094080 111 4966ft 260kts
11-Oct-17 19:54 32.849938 -117.013947 110 4970ft 257kts
11-Oct-17 19:55 32.825201 -116.934143 110 4970ft 257kts
11-Oct-17 19:56 32.799086 -116.855350 132 4964ft 255kts
11-Oct-17 19:57 32.733475 -116.851756 190 4749ft 245kts
11-Oct-17 19:58 32.668575 -116.870444 226 3969ft 240kts
11-Oct-17 19:59 32.673374 -116.942868 292 4001ft 218kts
11-Oct-17 20:00 32.688744 -117.005809 282 3735ft 186kts
11-Oct-17 20:01 32.701771 -117.058860 285 3270ft 141kts
11-Oct-17 20:02 32.712364 -117.103246 282 1951ft 146kts
11-Oct-17 20:03 32.723900 -117.150037 286 615ft 144kts
11-Oct-17 20:04 32.733873 -117.190972 286 27ft 108kts
11-Oct-17 20:05 32.735991 -117.204379 188 24ft 0kts
11-Oct-17 20:06 32.735788 -117.204470 213 24ft 9kts
11-Oct-17 20:07 32.733395 -117.205556 172 24ft 1kts
11-Oct-17 20:08 32.732636 -117.205405 170 23ft 0kts
11-Oct-17 20:09 32.732636 -117.205405 170 23ft 0kts
11-Oct-17 20:10 32.732636 -117.205405 170 23ft 0kts

Navigation Log

Ident Type
Flight plan parsing failed, navigation log unavailable